Fultondale, Alabama
Current Conditions -  °F | °C
As of 1:53 AM on Saturday 20 Dec 2014 (Local Time) from KBHM Reporting Station
Haze Haze  
Wind Chill: 40°   Ceiling: 8000
Heat Index: 40°   Visibility: 4mi
Dew Point: 38°   Wind: 0mph
Humidity: 93%   Direction: NA
Pressure: 30.16"   Gusts: NA
Location:  33.61°N, 86.8°W
Report Text: KBHM 200753Z 00000KT 4SM BR FEW006 SCT065 BKN080 04/03 A3016 RMK AO2 RAE03 SLP214 P0000 T00440033
Loading
Personal Weather Stations






























Interactive Weather Map New forecast layout! Learn more

10-Day Weather Forecast

Advertisements
Track Severe Weather on mobile